sensor_id;sensor_type;location;lat;lon;timestamp;P1;durP1;ratioP1;P2;durP2;ratioP2
38901;SDS011;24661;53.566;9.910;2022-08-19T00:01:48;7.90;;;6.40;;
38901;SDS011;24661;53.566;9.910;2022-08-19T00:04:15;10.17;;;7.73;;
38901;SDS011;24661;53.566;9.910;2022-08-19T00:06:42;8.83;;;7.50;;
38901;SDS011;24661;53.566;9.910;2022-08-19T00:09:13;8.77;;;6.73;;
38901;SDS011;24661;53.566;9.910;2022-08-19T00:11:41;7.43;;;6.60;;
38901;SDS011;24661;53.566;9.910;2022-08-19T00:14:08;8.97;;;7.20;;
38901;SDS011;24661;53.566;9.910;2022-08-19T00:16:36;11.37;;;7.73;;
38901;SDS011;24661;53.566;9.910;2022-08-19T00:19:03;11.83;;;8.43;;
38901;SDS011;24661;53.566;9.910;2022-08-19T00:21:29;13.67;;;9.23;;
38901;SDS011;24661;53.566;9.910;2022-08-19T00:23:55;14.47;;;9.47;;
38901;SDS011;24661;53.566;9.910;2022-08-19T00:26:25;11.63;;;9.80;;
38901;SDS011;24661;53.566;9.910;2022-08-19T00:28:52;15.60;;;11.60;;
38901;SDS011;24661;53.566;9.910;2022-08-19T00:31:17;18.70;;;12.93;;
38901;SDS011;24661;53.566;9.910;2022-08-19T00:33:43;17.53;;;12.63;;
38901;SDS011;24661;53.566;9.910;2022-08-19T00:36:09;15.27;;;12.80;;
38901;SDS011;24661;53.566;9.910;2022-08-19T00:38:36;17.00;;;12.80;;
38901;SDS011;24661;53.566;9.910;2022-08-19T00:41:03;18.40;;;13.23;;
38901;SDS011;24661;53.566;9.910;2022-08-19T00:43:30;25.37;;;17.43;;
38901;SDS011;24661;53.566;9.910;2022-08-19T00:45:56;24.10;;;16.33;;
38901;SDS011;24661;53.566;9.910;2022-08-19T00:48:22;20.07;;;14.77;;
38901;SDS011;24661;53.566;9.910;2022-08-19T00:50:49;25.40;;;17.70;;
38901;SDS011;24661;53.566;9.910;2022-08-19T00:53:19;22.83;;;16.43;;
38901;SDS011;24661;53.566;9.910;2022-08-19T00:55:48;23.87;;;16.30;;
38901;SDS011;24661;53.566;9.910;2022-08-19T00:58:19;27.53;;;17.37;;
38901;SDS011;24661;53.566;9.910;2022-08-19T01:00:47;27.30;;;18.53;;
38901;SDS011;24661;53.566;9.910;2022-08-19T01:03:14;26.87;;;18.70;;
38901;SDS011;24661;53.566;9.910;2022-08-19T01:05:44;29.90;;;18.77;;
38901;SDS011;24661;53.566;9.910;2022-08-19T01:08:11;27.27;;;18.33;;
38901;SDS011;24661;53.566;9.910;2022-08-19T01:10:40;25.30;;;16.73;;
38901;SDS011;24661;53.566;9.910;2022-08-19T01:13:10;23.13;;;17.00;;
38901;SDS011;24661;53.566;9.910;2022-08-19T01:15:40;25.07;;;18.30;;
38901;SDS011;24661;53.566;9.910;2022-08-19T01:18:11;31.70;;;16.87;;
38901;SDS011;24661;53.566;9.910;2022-08-19T01:20:38;21.47;;;16.77;;
38901;SDS011;24661;53.566;9.910;2022-08-19T01:23:06;20.40;;;15.30;;
38901;SDS011;24661;53.566;9.910;2022-08-19T01:25:35;20.20;;;16.10;;
38901;SDS011;24661;53.566;9.910;2022-08-19T01:28:06;22.40;;;15.73;;
38901;SDS011;24661;53.566;9.910;2022-08-19T01:30:33;22.47;;;17.00;;
38901;SDS011;24661;53.566;9.910;2022-08-19T01:33:00;26.13;;;17.40;;
38901;SDS011;24661;53.566;9.910;2022-08-19T01:35:30;26.27;;;18.00;;
38901;SDS011;24661;53.566;9.910;2022-08-19T01:37:57;22.67;;;15.37;;
38901;SDS011;24661;53.566;9.910;2022-08-19T01:40:33;21.93;;;16.60;;
38901;SDS011;24661;53.566;9.910;2022-08-19T01:43:00;30.30;;;16.50;;
38901;SDS011;24661;53.566;9.910;2022-08-19T01:45:28;23.53;;;16.07;;
38901;SDS011;24661;53.566;9.910;2022-08-19T01:47:55;22.90;;;15.97;;
38901;SDS011;24661;53.566;9.910;2022-08-19T01:50:21;19.17;;;15.00;;
38901;SDS011;24661;53.566;9.910;2022-08-19T01:52:47;19.50;;;15.33;;
38901;SDS011;24661;53.566;9.910;2022-08-19T01:55:14;20.83;;;16.33;;
38901;SDS011;24661;53.566;9.910;2022-08-19T01:57:43;22.33;;;17.10;;
38901;SDS011;24661;53.566;9.910;2022-08-19T02:00:12;28.03;;;18.87;;
38901;SDS011;24661;53.566;9.910;2022-08-19T02:02:40;30.57;;;19.70;;
38901;SDS011;24661;53.566;9.910;2022-08-19T02:05:06;33.53;;;18.70;;
38901;SDS011;24661;53.566;9.910;2022-08-19T02:07:33;30.70;;;19.53;;
38901;SDS011;24661;53.566;9.910;2022-08-19T02:10:02;34.87;;;19.93;;
38901;SDS011;24661;53.566;9.910;2022-08-19T02:12:28;31.00;;;19.60;;
38901;SDS011;24661;53.566;9.910;2022-08-19T02:14:54;31.27;;;18.17;;
38901;SDS011;24661;53.566;9.910;2022-08-19T02:17:20;36.73;;;21.03;;
38901;SDS011;24661;53.566;9.910;2022-08-19T02:19:46;36.30;;;20.30;;
38901;SDS011;24661;53.566;9.910;2022-08-19T02:22:13;37.23;;;22.30;;
38901;SDS011;24661;53.566;9.910;2022-08-19T02:24:39;39.00;;;22.40;;
38901;SDS011;24661;53.566;9.910;2022-08-19T02:27:05;40.67;;;23.23;;
38901;SDS011;24661;53.566;9.910;2022-08-19T02:29:31;44.77;;;24.20;;
38901;SDS011;24661;53.566;9.910;2022-08-19T02:31:56;43.30;;;23.20;;
38901;SDS011;24661;53.566;9.910;2022-08-19T02:34:23;41.37;;;22.57;;
38901;SDS011;24661;53.566;9.910;2022-08-19T02:36:49;44.70;;;24.50;;
38901;SDS011;24661;53.566;9.910;2022-08-19T02:39:15;45.10;;;24.53;;
38901;SDS011;24661;53.566;9.910;2022-08-19T02:41:41;46.80;;;26.27;;
38901;SDS011;24661;53.566;9.910;2022-08-19T02:44:07;47.63;;;26.00;;
38901;SDS011;24661;53.566;9.910;2022-08-19T02:46:34;48.33;;;24.67;;
38901;SDS011;24661;53.566;9.910;2022-08-19T02:49:05;40.73;;;23.00;;
38901;SDS011;24661;53.566;9.910;2022-08-19T02:51:36;41.50;;;22.43;;
38901;SDS011;24661;53.566;9.910;2022-08-19T02:54:06;47.60;;;24.87;;
38901;SDS011;24661;53.566;9.910;2022-08-19T02:56:34;50.63;;;25.27;;
38901;SDS011;24661;53.566;9.910;2022-08-19T02:59:01;52.83;;;26.33;;
38901;SDS011;24661;53.566;9.910;2022-08-19T03:01:28;63.93;;;30.60;;
38901;SDS011;24661;53.566;9.910;2022-08-19T03:03:56;50.90;;;27.23;;
38901;SDS011;24661;53.566;9.910;2022-08-19T03:06:24;56.90;;;28.67;;
38901;SDS011;24661;53.566;9.910;2022-08-19T03:08:50;45.13;;;25.73;;
38901;SDS011;24661;53.566;9.910;2022-08-19T03:11:25;54.50;;;27.47;;
38901;SDS011;24661;53.566;9.910;2022-08-19T03:13:52;53.67;;;28.10;;
38901;SDS011;24661;53.566;9.910;2022-08-19T03:16:20;47.27;;;26.00;;
38901;SDS011;24661;53.566;9.910;2022-08-19T03:18:48;59.60;;;29.30;;
38901;SDS011;24661;53.566;9.910;2022-08-19T03:21:16;54.57;;;30.27;;
38901;SDS011;24661;53.566;9.910;2022-08-19T03:23:42;55.97;;;28.60;;
38901;SDS011;24661;53.566;9.910;2022-08-19T03:26:08;52.80;;;28.13;;
38901;SDS011;24661;53.566;9.910;2022-08-19T03:28:34;61.03;;;30.63;;
38901;SDS011;24661;53.566;9.910;2022-08-19T03:31:03;47.80;;;25.83;;
38901;SDS011;24661;53.566;9.910;2022-08-19T03:33:33;59.40;;;28.63;;
38901;SDS011;24661;53.566;9.910;2022-08-19T03:38:37;48.37;;;25.43;;
38901;SDS011;24661;53.566;9.910;2022-08-19T03:41:05;47.67;;;26.80;;
38901;SDS011;24661;53.566;9.910;2022-08-19T03:43:36;43.07;;;25.43;;
38901;SDS011;24661;53.566;9.910;2022-08-19T03:46:14;58.30;;;29.67;;
38901;SDS011;24661;53.566;9.910;2022-08-19T03:48:42;51.70;;;26.67;;
38901;SDS011;24661;53.566;9.910;2022-08-19T03:51:19;47.97;;;28.27;;
38901;SDS011;24661;53.566;9.910;2022-08-19T03:53:47;51.33;;;28.00;;
38901;SDS011;24661;53.566;9.910;2022-08-19T03:56:14;52.17;;;28.30;;
38901;SDS011;24661;53.566;9.910;2022-08-19T03:58:40;47.93;;;27.10;;
38901;SDS011;24661;53.566;9.910;2022-08-19T04:01:21;55.50;;;30.20;;
38901;SDS011;24661;53.566;9.910;2022-08-19T04:03:49;47.50;;;26.23;;
38901;SDS011;24661;53.566;9.910;2022-08-19T04:08:46;51.27;;;29.13;;
38901;SDS011;24661;53.566;9.910;2022-08-19T04:11:15;47.40;;;27.60;;
38901;SDS011;24661;53.566;9.910;2022-08-19T04:13:43;51.63;;;27.33;;
38901;SDS011;24661;53.566;9.910;2022-08-19T04:16:09;54.37;;;30.83;;
38901;SDS011;24661;53.566;9.910;2022-08-19T04:18:37;48.60;;;28.80;;
38901;SDS011;24661;53.566;9.910;2022-08-19T04:21:04;44.73;;;28.97;;
38901;SDS011;24661;53.566;9.910;2022-08-19T04:23:31;52.50;;;29.33;;
38901;SDS011;24661;53.566;9.910;2022-08-19T04:25:57;42.03;;;25.60;;
38901;SDS011;24661;53.566;9.910;2022-08-19T04:28:23;52.03;;;26.77;;
38901;SDS011;24661;53.566;9.910;2022-08-19T04:30:50;47.67;;;26.97;;
38901;SDS011;24661;53.566;9.910;2022-08-19T04:33:20;45.63;;;25.53;;
38901;SDS011;24661;53.566;9.910;2022-08-19T04:35:48;43.93;;;24.13;;
38901;SDS011;24661;53.566;9.910;2022-08-19T04:38:16;33.63;;;21.20;;
38901;SDS011;24661;53.566;9.910;2022-08-19T04:40:45;46.67;;;24.43;;
38901;SDS011;24661;53.566;9.910;2022-08-19T04:43:32;34.70;;;23.97;;
38901;SDS011;24661;53.566;9.910;2022-08-19T04:46:09;37.57;;;22.97;;
38901;SDS011;24661;53.566;9.910;2022-08-19T04:48:36;31.87;;;21.30;;
38901;SDS011;24661;53.566;9.910;2022-08-19T04:51:05;33.87;;;21.97;;
38901;SDS011;24661;53.566;9.910;2022-08-19T04:53:33;42.53;;;22.70;;
38901;SDS011;24661;53.566;9.910;2022-08-19T04:56:03;34.67;;;23.10;;
38901;SDS011;24661;53.566;9.910;2022-08-19T04:58:33;34.33;;;20.83;;
38901;SDS011;24661;53.566;9.910;2022-08-19T05:01:00;35.10;;;23.23;;
38901;SDS011;24661;53.566;9.910;2022-08-19T05:03:26;49.63;;;25.60;;
38901;SDS011;24661;53.566;9.910;2022-08-19T05:05:52;39.33;;;23.37;;
38901;SDS011;24661;53.566;9.910;2022-08-19T05:08:19;30.80;;;20.33;;
38901;SDS011;24661;53.566;9.910;2022-08-19T05:10:47;44.57;;;21.97;;
38901;SDS011;24661;53.566;9.910;2022-08-19T05:13:14;41.67;;;21.03;;
38901;SDS011;24661;53.566;9.910;2022-08-19T05:15:41;36.30;;;22.57;;
38901;SDS011;24661;53.566;9.910;2022-08-19T05:18:08;36.20;;;20.63;;
38901;SDS011;24661;53.566;9.910;2022-08-19T05:20:52;36.43;;;20.20;;
38901;SDS011;24661;53.566;9.910;2022-08-19T05:23:37;34.87;;;20.60;;
38901;SDS011;24661;53.566;9.910;2022-08-19T05:26:03;33.97;;;20.17;;
38901;SDS011;24661;53.566;9.910;2022-08-19T05:28:29;31.13;;;18.77;;
38901;SDS011;24661;53.566;9.910;2022-08-19T05:30:55;31.30;;;18.53;;
38901;SDS011;24661;53.566;9.910;2022-08-19T05:33:21;29.80;;;19.13;;
38901;SDS011;24661;53.566;9.910;2022-08-19T05:35:47;29.97;;;18.37;;
38901;SDS011;24661;53.566;9.910;2022-08-19T05:38:14;28.77;;;16.57;;
38901;SDS011;24661;53.566;9.910;2022-08-19T05:40:44;37.97;;;21.10;;
38901;SDS011;24661;53.566;9.910;2022-08-19T05:43:12;34.77;;;17.90;;
38901;SDS011;24661;53.566;9.910;2022-08-19T05:45:40;29.13;;;15.30;;
38901;SDS011;24661;53.566;9.910;2022-08-19T05:48:08;29.03;;;18.07;;
38901;SDS011;24661;53.566;9.910;2022-08-19T05:50:37;20.60;;;14.47;;
38901;SDS011;24661;53.566;9.910;2022-08-19T05:53:04;39.07;;;17.53;;
38901;SDS011;24661;53.566;9.910;2022-08-19T05:55:30;26.70;;;15.27;;
38901;SDS011;24661;53.566;9.910;2022-08-19T05:57:56;28.40;;;15.90;;
38901;SDS011;24661;53.566;9.910;2022-08-19T06:00:21;25.43;;;13.90;;
38901;SDS011;24661;53.566;9.910;2022-08-19T06:02:48;19.67;;;13.63;;
38901;SDS011;24661;53.566;9.910;2022-08-19T06:05:13;22.80;;;14.33;;
38901;SDS011;24661;53.566;9.910;2022-08-19T06:07:39;23.50;;;13.93;;
38901;SDS011;24661;53.566;9.910;2022-08-19T06:10:06;20.47;;;13.87;;
38901;SDS011;24661;53.566;9.910;2022-08-19T06:12:34;23.47;;;13.93;;
38901;SDS011;24661;53.566;9.910;2022-08-19T06:15:00;24.53;;;13.80;;
38901;SDS011;24661;53.566;9.910;2022-08-19T06:17:29;21.83;;;14.17;;
38901;SDS011;24661;53.566;9.910;2022-08-19T06:19:55;24.83;;;12.87;;
38901;SDS011;24661;53.566;9.910;2022-08-19T06:22:21;24.47;;;13.63;;
38901;SDS011;24661;53.566;9.910;2022-08-19T06:24:47;28.73;;;14.17;;
38901;SDS011;24661;53.566;9.910;2022-08-19T06:27:17;28.97;;;15.70;;
38901;SDS011;24661;53.566;9.910;2022-08-19T06:29:43;22.30;;;12.33;;
38901;SDS011;24661;53.566;9.910;2022-08-19T06:32:09;17.27;;;12.63;;
38901;SDS011;24661;53.566;9.910;2022-08-19T06:34:36;21.73;;;14.03;;
38901;SDS011;24661;53.566;9.910;2022-08-19T06:37:02;18.30;;;12.23;;
38901;SDS011;24661;53.566;9.910;2022-08-19T06:39:34;18.73;;;12.37;;
38901;SDS011;24661;53.566;9.910;2022-08-19T06:42:03;24.97;;;12.77;;
38901;SDS011;24661;53.566;9.910;2022-08-19T06:44:33;20.87;;;12.03;;
38901;SDS011;24661;53.566;9.910;2022-08-19T06:47:05;17.23;;;11.33;;
38901;SDS011;24661;53.566;9.910;2022-08-19T06:49:32;20.90;;;11.97;;
38901;SDS011;24661;53.566;9.910;2022-08-19T06:51:58;28.33;;;13.27;;
38901;SDS011;24661;53.566;9.910;2022-08-19T06:54:24;13.20;;;10.23;;
38901;SDS011;24661;53.566;9.910;2022-08-19T06:56:51;21.93;;;9.77;;
38901;SDS011;24661;53.566;9.910;2022-08-19T06:59:18;18.57;;;10.53;;
38901;SDS011;24661;53.566;9.910;2022-08-19T07:01:51;21.23;;;9.93;;
38901;SDS011;24661;53.566;9.910;2022-08-19T07:04:19;14.33;;;9.70;;
38901;SDS011;24661;53.566;9.910;2022-08-19T07:06:46;19.07;;;10.10;;
38901;SDS011;24661;53.566;9.910;2022-08-19T07:09:14;12.50;;;8.37;;
38901;SDS011;24661;53.566;9.910;2022-08-19T07:11:44;13.37;;;7.27;;
38901;SDS011;24661;53.566;9.910;2022-08-19T07:14:11;15.47;;;9.20;;
38901;SDS011;24661;53.566;9.910;2022-08-19T07:16:39;12.90;;;7.83;;
38901;SDS011;24661;53.566;9.910;2022-08-19T07:19:05;13.07;;;8.77;;
38901;SDS011;24661;53.566;9.910;2022-08-19T07:21:31;11.70;;;7.40;;
38901;SDS011;24661;53.566;9.910;2022-08-19T07:23:58;11.30;;;8.20;;
38901;SDS011;24661;53.566;9.910;2022-08-19T07:26:26;13.03;;;8.17;;
38901;SDS011;24661;53.566;9.910;2022-08-19T07:28:54;12.67;;;7.77;;
38901;SDS011;24661;53.566;9.910;2022-08-19T07:31:21;13.77;;;7.70;;
38901;SDS011;24661;53.566;9.910;2022-08-19T07:33:49;9.27;;;7.70;;
38901;SDS011;24661;53.566;9.910;2022-08-19T07:36:17;9.07;;;7.07;;
38901;SDS011;24661;53.566;9.910;2022-08-19T07:38:46;13.60;;;8.03;;
38901;SDS011;24661;53.566;9.910;2022-08-19T07:41:14;12.13;;;7.67;;
38901;SDS011;24661;53.566;9.910;2022-08-19T07:43:42;10.60;;;8.30;;
38901;SDS011;24661;53.566;9.910;2022-08-19T07:46:09;11.37;;;7.97;;
38901;SDS011;24661;53.566;9.910;2022-08-19T07:48:35;13.30;;;8.73;;
38901;SDS011;24661;53.566;9.910;2022-08-19T07:51:04;12.13;;;9.13;;
38901;SDS011;24661;53.566;9.910;2022-08-19T07:53:33;11.80;;;8.00;;
38901;SDS011;24661;53.566;9.910;2022-08-19T07:56:00;10.57;;;7.17;;
38901;SDS011;24661;53.566;9.910;2022-08-19T07:58:30;8.07;;;6.20;;
38901;SDS011;24661;53.566;9.910;2022-08-19T08:00:58;8.37;;;6.10;;
38901;SDS011;24661;53.566;9.910;2022-08-19T08:03:24;9.03;;;6.77;;
38901;SDS011;24661;53.566;9.910;2022-08-19T08:06:10;16.90;;;7.70;;
38901;SDS011;24661;53.566;9.910;2022-08-19T08:08:55;9.20;;;7.07;;
38901;SDS011;24661;53.566;9.910;2022-08-19T08:11:36;9.20;;;6.77;;
38901;SDS011;24661;53.566;9.910;2022-08-19T08:14:03;13.83;;;8.00;;
38901;SDS011;24661;53.566;9.910;2022-08-19T08:16:30;12.57;;;7.40;;
38901;SDS011;24661;53.566;9.910;2022-08-19T08:18:59;13.83;;;8.73;;
38901;SDS011;24661;53.566;9.910;2022-08-19T08:21:25;11.83;;;8.27;;
38901;SDS011;24661;53.566;9.910;2022-08-19T08:23:51;23.77;;;10.03;;
38901;SDS011;24661;53.566;9.910;2022-08-19T08:26:18;13.17;;;10.17;;
38901;SDS011;24661;53.566;9.910;2022-08-19T08:28:44;15.50;;;8.90;;
38901;SDS011;24661;53.566;9.910;2022-08-19T08:31:11;11.80;;;8.63;;
38901;SDS011;24661;53.566;9.910;2022-08-19T08:33:37;17.47;;;10.93;;
38901;SDS011;24661;53.566;9.910;2022-08-19T08:36:06;16.83;;;11.50;;
38901;SDS011;24661;53.566;9.910;2022-08-19T08:38:33;11.10;;;9.07;;
38901;SDS011;24661;53.566;9.910;2022-08-19T08:41:08;17.37;;;11.00;;
38901;SDS011;24661;53.566;9.910;2022-08-19T08:44:11;12.53;;;9.87;;
38901;SDS011;24661;53.566;9.910;2022-08-19T08:52:03;19.50;;;12.13;;
38901;SDS011;24661;53.566;9.910;2022-08-19T08:54:36;19.93;;;11.83;;
38901;SDS011;24661;53.566;9.910;2022-08-19T08:57:10;18.83;;;11.30;;
38901;SDS011;24661;53.566;9.910;2022-08-19T08:59:39;25.90;;;13.07;;
38901;SDS011;24661;53.566;9.910;2022-08-19T09:02:08;17.57;;;10.10;;
38901;SDS011;24661;53.566;9.910;2022-08-19T09:04:35;14.60;;;10.03;;
38901;SDS011;24661;53.566;9.910;2022-08-19T09:09:55;16.57;;;9.40;;
38901;SDS011;24661;53.566;9.910;2022-08-19T09:12:39;20.33;;;9.50;;
38901;SDS011;24661;53.566;9.910;2022-08-19T09:15:28;18.53;;;10.27;;
38901;SDS011;24661;53.566;9.910;2022-08-19T09:18:03;18.83;;;9.53;;
38901;SDS011;24661;53.566;9.910;2022-08-19T09:20:31;12.90;;;9.33;;
38901;SDS011;24661;53.566;9.910;2022-08-19T09:22:57;13.57;;;9.47;;
38901;SDS011;24661;53.566;9.910;2022-08-19T09:25:23;17.07;;;10.50;;
38901;SDS011;24661;53.566;9.910;2022-08-19T09:27:50;17.13;;;9.47;;
38901;SDS011;24661;53.566;9.910;2022-08-19T09:30:25;17.53;;;9.10;;
38901;SDS011;24661;53.566;9.910;2022-08-19T09:32:52;16.60;;;9.20;;
38901;SDS011;24661;53.566;9.910;2022-08-19T09:35:23;18.03;;;10.47;;
38901;SDS011;24661;53.566;9.910;2022-08-19T09:37:50;16.00;;;9.63;;
38901;SDS011;24661;53.566;9.910;2022-08-19T09:40:16;17.33;;;9.37;;
38901;SDS011;24661;53.566;9.910;2022-08-19T09:42:43;18.73;;;11.30;;
38901;SDS011;24661;53.566;9.910;2022-08-19T09:45:11;14.30;;;10.07;;
38901;SDS011;24661;53.566;9.910;2022-08-19T09:47:38;24.90;;;12.73;;
38901;SDS011;24661;53.566;9.910;2022-08-19T09:50:05;16.60;;;10.53;;
38901;SDS011;24661;53.566;9.910;2022-08-19T09:52:33;16.87;;;9.90;;
38901;SDS011;24661;53.566;9.910;2022-08-19T09:55:01;15.03;;;10.13;;
38901;SDS011;24661;53.566;9.910;2022-08-19T09:57:28;16.03;;;11.47;;
38901;SDS011;24661;53.566;9.910;2022-08-19T09:59:54;21.40;;;13.07;;
38901;SDS011;24661;53.566;9.910;2022-08-19T10:02:19;16.97;;;12.20;;
38901;SDS011;24661;53.566;9.910;2022-08-19T10:04:45;19.20;;;12.00;;
38901;SDS011;24661;53.566;9.910;2022-08-19T10:07:30;22.20;;;14.33;;
38901;SDS011;24661;53.566;9.910;2022-08-19T10:09:56;21.33;;;13.97;;
38901;SDS011;24661;53.566;9.910;2022-08-19T10:12:21;18.43;;;12.33;;
38901;SDS011;24661;53.566;9.910;2022-08-19T10:14:47;25.47;;;14.03;;
38901;SDS011;24661;53.566;9.910;2022-08-19T10:17:13;22.67;;;14.40;;
38901;SDS011;24661;53.566;9.910;2022-08-19T10:19:39;23.93;;;14.60;;
38901;SDS011;24661;53.566;9.910;2022-08-19T10:22:06;23.80;;;15.00;;
38901;SDS011;24661;53.566;9.910;2022-08-19T10:24:32;19.33;;;14.10;;
38901;SDS011;24661;53.566;9.910;2022-08-19T10:27:00;22.10;;;14.13;;
38901;SDS011;24661;53.566;9.910;2022-08-19T10:29:29;18.13;;;14.47;;
38901;SDS011;24661;53.566;9.910;2022-08-19T10:32:02;22.00;;;14.43;;
38901;SDS011;24661;53.566;9.910;2022-08-19T10:34:53;20.10;;;13.93;;
38901;SDS011;24661;53.566;9.910;2022-08-19T10:37:21;22.67;;;14.10;;
38901;SDS011;24661;53.566;9.910;2022-08-19T10:39:47;23.60;;;16.03;;
38901;SDS011;24661;53.566;9.910;2022-08-19T10:42:13;20.97;;;13.97;;
38901;SDS011;24661;53.566;9.910;2022-08-19T10:44:41;30.30;;;15.47;;
38901;SDS011;24661;53.566;9.910;2022-08-19T10:47:07;21.40;;;15.77;;
38901;SDS011;24661;53.566;9.910;2022-08-19T10:49:33;23.77;;;14.67;;
38901;SDS011;24661;53.566;9.910;2022-08-19T10:52:19;23.47;;;15.13;;
38901;SDS011;24661;53.566;9.910;2022-08-19T10:55:01;24.70;;;15.07;;
38901;SDS011;24661;53.566;9.910;2022-08-19T10:57:50;20.97;;;15.03;;
38901;SDS011;24661;53.566;9.910;2022-08-19T11:00:19;20.83;;;14.47;;
38901;SDS011;24661;53.566;9.910;2022-08-19T11:02:48;18.37;;;12.60;;
38901;SDS011;24661;53.566;9.910;2022-08-19T11:05:14;22.00;;;14.77;;
38901;SDS011;24661;53.566;9.910;2022-08-19T11:07:40;23.90;;;15.73;;
38901;SDS011;24661;53.566;9.910;2022-08-19T11:10:06;26.00;;;16.43;;
38901;SDS011;24661;53.566;9.910;2022-08-19T11:12:36;24.87;;;16.77;;
38901;SDS011;24661;53.566;9.910;2022-08-19T11:15:04;23.53;;;14.87;;
38901;SDS011;24661;53.566;9.910;2022-08-19T11:17:36;17.57;;;14.00;;
38901;SDS011;24661;53.566;9.910;2022-08-19T11:20:09;18.17;;;13.63;;
38901;SDS011;24661;53.566;9.910;2022-08-19T11:22:39;18.30;;;12.87;;
38901;SDS011;24661;53.566;9.910;2022-08-19T11:25:06;24.80;;;15.33;;
38901;SDS011;24661;53.566;9.910;2022-08-19T11:27:32;19.47;;;13.93;;
38901;SDS011;24661;53.566;9.910;2022-08-19T11:29:58;24.43;;;16.83;;
38901;SDS011;24661;53.566;9.910;2022-08-19T11:32:25;19.87;;;12.83;;
38901;SDS011;24661;53.566;9.910;2022-08-19T11:34:51;18.37;;;12.57;;
38901;SDS011;24661;53.566;9.910;2022-08-19T11:37:17;16.50;;;12.57;;
38901;SDS011;24661;53.566;9.910;2022-08-19T11:39:43;15.13;;;11.67;;
38901;SDS011;24661;53.566;9.910;2022-08-19T11:42:09;17.00;;;13.47;;
38901;SDS011;24661;53.566;9.910;2022-08-19T11:44:53;14.50;;;11.50;;
38901;SDS011;24661;53.566;9.910;2022-08-19T11:47:19;15.87;;;11.83;;
38901;SDS011;24661;53.566;9.910;2022-08-19T11:49:46;18.80;;;13.63;;
38901;SDS011;24661;53.566;9.910;2022-08-19T11:52:12;17.10;;;13.47;;
38901;SDS011;24661;53.566;9.910;2022-08-19T11:54:38;14.43;;;12.37;;
38901;SDS011;24661;53.566;9.910;2022-08-19T11:57:03;25.43;;;18.37;;
38901;SDS011;24661;53.566;9.910;2022-08-19T11:59:29;20.50;;;16.00;;
38901;SDS011;24661;53.566;9.910;2022-08-19T12:01:55;18.60;;;13.23;;
38901;SDS011;24661;53.566;9.910;2022-08-19T12:04:22;18.53;;;12.97;;
38901;SDS011;24661;53.566;9.910;2022-08-19T12:06:47;16.50;;;12.57;;
38901;SDS011;24661;53.566;9.910;2022-08-19T12:09:15;18.07;;;12.50;;
38901;SDS011;24661;53.566;9.910;2022-08-19T12:11:42;18.60;;;13.33;;
38901;SDS011;24661;53.566;9.910;2022-08-19T12:14:11;13.37;;;10.80;;
38901;SDS011;24661;53.566;9.910;2022-08-19T12:16:38;12.57;;;11.23;;
38901;SDS011;24661;53.566;9.910;2022-08-19T12:19:05;16.13;;;13.20;;
38901;SDS011;24661;53.566;9.910;2022-08-19T12:21:32;15.43;;;12.20;;
38901;SDS011;24661;53.566;9.910;2022-08-19T12:24:00;13.40;;;12.00;;
38901;SDS011;24661;53.566;9.910;2022-08-19T12:26:27;14.23;;;12.63;;
38901;SDS011;24661;53.566;9.910;2022-08-19T12:28:54;14.43;;;10.97;;
38901;SDS011;24661;53.566;9.910;2022-08-19T12:31:20;14.67;;;12.33;;
38901;SDS011;24661;53.566;9.910;2022-08-19T12:33:46;16.97;;;12.73;;
38901;SDS011;24661;53.566;9.910;2022-08-19T12:36:13;15.63;;;12.80;;
38901;SDS011;24661;53.566;9.910;2022-08-19T12:38:40;13.83;;;12.40;;
38901;SDS011;24661;53.566;9.910;2022-08-19T12:41:08;14.30;;;11.77;;
38901;SDS011;24661;53.566;9.910;2022-08-19T12:43:37;14.60;;;11.67;;
38901;SDS011;24661;53.566;9.910;2022-08-19T12:46:03;19.87;;;12.60;;
38901;SDS011;24661;53.566;9.910;2022-08-19T12:48:30;14.63;;;11.80;;
38901;SDS011;24661;53.566;9.910;2022-08-19T12:50:57;15.77;;;12.57;;
38901;SDS011;24661;53.566;9.910;2022-08-19T12:53:22;16.37;;;11.77;;
38901;SDS011;24661;53.566;9.910;2022-08-19T12:55:54;12.17;;;10.77;;
38901;SDS011;24661;53.566;9.910;2022-08-19T12:58:24;11.97;;;10.67;;
38901;SDS011;24661;53.566;9.910;2022-08-19T13:00:51;10.27;;;9.23;;
38901;SDS011;24661;53.566;9.910;2022-08-19T13:03:16;11.40;;;10.20;;
38901;SDS011;24661;53.566;9.910;2022-08-19T13:05:42;14.00;;;11.83;;
38901;SDS011;24661;53.566;9.910;2022-08-19T13:08:08;11.80;;;10.60;;
38901;SDS011;24661;53.566;9.910;2022-08-19T13:10:34;13.40;;;11.97;;
38901;SDS011;24661;53.566;9.910;2022-08-19T13:13:06;13.43;;;12.03;;
38901;SDS011;24661;53.566;9.910;2022-08-19T13:15:35;12.30;;;11.03;;
38901;SDS011;24661;53.566;9.910;2022-08-19T13:18:04;16.50;;;13.07;;
38901;SDS011;24661;53.566;9.910;2022-08-19T13:20:31;16.50;;;11.83;;
38901;SDS011;24661;53.566;9.910;2022-08-19T13:22:58;12.63;;;10.90;;
38901;SDS011;24661;53.566;9.910;2022-08-19T13:25:24;15.73;;;11.57;;
38901;SDS011;24661;53.566;9.910;2022-08-19T13:27:53;13.47;;;10.93;;
38901;SDS011;24661;53.566;9.910;2022-08-19T13:30:20;14.50;;;11.87;;
38901;SDS011;24661;53.566;9.910;2022-08-19T13:33:06;14.97;;;11.20;;
38901;SDS011;24661;53.566;9.910;2022-08-19T13:38:11;16.60;;;12.43;;
38901;SDS011;24661;53.566;9.910;2022-08-19T13:40:38;15.60;;;13.17;;
38901;SDS011;24661;53.566;9.910;2022-08-19T13:43:05;17.40;;;15.43;;
38901;SDS011;24661;53.566;9.910;2022-08-19T13:45:33;16.13;;;13.07;;
38901;SDS011;24661;53.566;9.910;2022-08-19T13:47:59;15.23;;;12.27;;
38901;SDS011;24661;53.566;9.910;2022-08-19T13:50:30;14.60;;;11.33;;
38901;SDS011;24661;53.566;9.910;2022-08-19T13:53:06;13.70;;;12.17;;
38901;SDS011;24661;53.566;9.910;2022-08-19T13:55:33;15.27;;;12.73;;
38901;SDS011;24661;53.566;9.910;2022-08-19T13:58:01;14.40;;;12.90;;
38901;SDS011;24661;53.566;9.910;2022-08-19T14:00:29;17.17;;;14.10;;
38901;SDS011;24661;53.566;9.910;2022-08-19T14:02:57;18.07;;;14.80;;
38901;SDS011;24661;53.566;9.910;2022-08-19T14:05:24;15.33;;;12.93;;
38901;SDS011;24661;53.566;9.910;2022-08-19T14:07:51;14.67;;;12.47;;
38901;SDS011;24661;53.566;9.910;2022-08-19T14:10:18;14.10;;;12.60;;
38901;SDS011;24661;53.566;9.910;2022-08-19T14:12:44;14.30;;;12.80;;
38901;SDS011;24661;53.566;9.910;2022-08-19T14:15:11;16.40;;;14.17;;
38901;SDS011;24661;53.566;9.910;2022-08-19T14:17:38;15.27;;;13.17;;
38901;SDS011;24661;53.566;9.910;2022-08-19T14:20:06;15.40;;;13.87;;
38901;SDS011;24661;53.566;9.910;2022-08-19T14:22:38;16.67;;;13.60;;
38901;SDS011;24661;53.566;9.910;2022-08-19T14:25:06;12.73;;;11.20;;
38901;SDS011;24661;53.566;9.910;2022-08-19T14:27:35;13.40;;;11.77;;
38901;SDS011;24661;53.566;9.910;2022-08-19T14:30:06;14.93;;;11.87;;
38901;SDS011;24661;53.566;9.910;2022-08-19T14:32:34;15.57;;;13.90;;
38901;SDS011;24661;53.566;9.910;2022-08-19T14:35:00;13.10;;;11.70;;
38901;SDS011;24661;53.566;9.910;2022-08-19T14:37:27;12.07;;;10.87;;
38901;SDS011;24661;53.566;9.910;2022-08-19T14:39:53;12.50;;;11.20;;
38901;SDS011;24661;53.566;9.910;2022-08-19T14:42:19;12.03;;;10.83;;
38901;SDS011;24661;53.566;9.910;2022-08-19T14:44:46;12.03;;;10.83;;
38901;SDS011;24661;53.566;9.910;2022-08-19T14:47:12;11.73;;;10.53;;